Portada
METAR-TAF:

METAR-TAF

Aeroports :

Redstone Arsenal, Alabama, Estats Units d'Amèrica

latitud: 34-40-43N, longitud: 086-41-05W, altitud: 209 m

Observació

L'informe es va fer fa 1 hora i 6 minuts, a les 05:55 UTC
Vent calma
Temperatura 24°C
Humitat 78%
Pressió 1015 hPa
Visibilitat: 16.1 km
Cel clar

METAR: KHUA 230555Z AUTO 00000KT 10SM CLR 24/20 A2998 RMK AO2 SLPNO T02370204 10277 20234 58004 $

Hora: 02:01 (07:01 UTC)

Pronòstic

L'informe es va fer fa 31 hores i 1 minuts, a les 00:00 UTC
Pronòstic vàlid del 22 a les 00 UTC al 23 a les 02 UTC
Vent 6 kt amb direcció variable
Visibilitat: 2412 m
Núvols disperses a una alçada de 5000 ft

TAF: KHUA 220000Z 2200/2302 VRB06KT 9999 SCT050 QNH2999INS TX34/2220Z TN21/2211Z LAST NO AMDS AFT 2200 NEXT 2412

Observacions i pronòstics meteorològics de més de 4000 aeroports (METAR i TAF).

Les estacions disponibles són els punts grocs i vermells al mapa.

Posi el ratolí al punt desitjat per veure el nom de l'estació.

Feu clic per veure les observacions i els pronòstics meteorològics.

Per canviar el mapa: feu clic els botons verds amb una creu de color negre per apropar; al botó verd amb un guió per allunyar la imatge; o en les fletxes verdes per a mapes adjacents.


METAR-TAF: